createdAt,value
2015-12-11T00:00:54.563Z,80.4
2015-12-11T00:01:54.504Z,80.7
2015-12-11T00:02:54.443Z,80.7
2015-12-11T00:03:54.384Z,81
2015-12-11T00:04:54.323Z,81.1
2015-12-11T00:05:54.265Z,81.1
2015-12-11T00:06:53.470Z,80.8
2015-12-11T00:07:54.146Z,80.8
2015-12-11T00:08:54.101Z,80.7
2015-12-11T00:09:54.041Z,80.8
2015-12-11T00:10:54.216Z,80.7
2015-12-11T00:11:53.921Z,81.1
2015-12-11T00:12:53.862Z,81.1
2015-12-11T00:13:53.817Z,81.7
2015-12-11T00:14:53.976Z,81.8
2015-12-11T00:15:53.682Z,81.8
2015-12-11T00:16:53.623Z,82.6
2015-12-11T00:17:53.813Z,83
2015-12-11T00:18:53.517Z,82.9
2015-12-11T00:19:53.473Z,83.6
2015-12-11T00:20:53.397Z,83.5
2015-12-11T00:21:53.337Z,83.2
2015-12-11T00:22:53.278Z,83.3
2015-12-11T00:23:53.233Z,83.2
2015-12-11T00:24:53.189Z,83.1
2015-12-11T00:25:53.114Z,83.2
2015-12-11T00:26:53.054Z,83.1
2015-12-11T00:27:52.994Z,82.4
2015-12-11T00:28:52.950Z,82.2
2015-12-11T00:29:52.890Z,80.6
2015-12-11T00:30:52.831Z,79.5
2015-12-11T00:31:52.771Z,79
2015-12-11T00:32:52.711Z,78.2
2015-12-11T00:33:52.651Z,77.9
2015-12-11T00:34:52.592Z,77.3
2015-12-11T00:35:52.531Z,77.1
2015-12-11T00:36:52.487Z,76.1
2015-12-11T00:37:52.412Z,76.7
2015-12-11T00:38:52.353Z,76.1
2015-12-11T00:39:52.309Z,75.9
2015-12-11T00:40:52.248Z,76.5
2015-12-11T00:41:52.189Z,76.5
2015-12-11T00:42:51.395Z,76.5
2015-12-11T00:43:52.070Z,75.8
2015-12-11T00:44:52.025Z,75.8
2015-12-11T00:45:51.966Z,75.6
2015-12-11T00:46:51.906Z,75.7
2015-12-11T00:47:51.846Z,75.8
2015-12-11T00:48:51.786Z,75.8
2015-12-11T00:49:51.742Z,75.7
2015-12-11T00:50:51.683Z,75.9
2015-12-11T00:51:51.607Z,75.5
2015-12-11T00:52:51.563Z,75.3
2015-12-11T00:53:51.503Z,75.2
2015-12-11T00:54:51.475Z,75.2
2015-12-11T00:55:51.400Z,75.3
2015-12-11T00:56:51.340Z,75.4
2015-12-11T00:57:51.262Z,75.5
2015-12-11T00:58:51.217Z,75.6
2015-12-11T00:59:51.158Z,75.4
2015-12-11T01:00:51.114Z,75.2
2015-12-11T01:01:51.054Z,75.4
2015-12-11T01:02:50.994Z,75.1
2015-12-11T01:03:50.200Z,75.1
2015-12-11T01:04:50.875Z,75.3
2015-12-11T01:05:50.831Z,75.8
2015-12-11T01:06:50.755Z,75.5
2015-12-11T01:07:50.695Z,75.3
2015-12-11T01:08:50.652Z,75.8
2015-12-11T01:09:50.591Z,76.9
2015-12-11T01:10:50.533Z,76.3
2015-12-11T01:11:50.488Z,75.8
2015-12-11T01:12:50.443Z,76.1
2015-12-11T01:13:50.586Z,75.1
2015-12-11T01:14:50.308Z,74.9
2015-12-11T01:15:50.264Z,74.9
2015-12-11T01:16:50.204Z,75
2015-12-11T01:17:50.145Z,75.2
2015-12-11T01:18:50.085Z,75.3
2015-12-11T01:19:50.025Z,75.8
2015-12-11T01:20:49.966Z,76.1
2015-12-11T01:21:49.895Z,76.7
2015-12-11T01:22:49.818Z,76.9
2015-12-11T01:23:49.758Z,76.9
2015-12-11T01:24:49.683Z,77
2015-12-11T01:25:49.607Z,76.9
2015-12-11T01:26:49.557Z,76.6
2015-12-11T01:27:49.476Z,77.8
2015-12-11T01:28:49.426Z,78.3
2015-12-11T01:29:49.376Z,78.1
2015-12-11T01:30:49.296Z,78.5
2015-12-11T01:31:49.234Z,78.7
2015-12-11T01:32:49.188Z,78.8
2015-12-11T01:33:49.110Z,79.6
2015-12-11T01:34:49.048Z,79.4
2015-12-11T01:35:49.002Z,80.1
2015-12-11T01:36:48.941Z,79.7
2015-12-11T01:37:48.896Z,80
2015-12-11T01:38:48.820Z,80.1
2015-12-11T01:39:48.758Z,80.1
2015-12-11T01:40:48.699Z,80
2015-12-11T01:41:48.654Z,80.3
2015-12-11T01:42:48.594Z,80.5
2015-12-11T01:43:48.533Z,79.5
2015-12-11T01:44:48.473Z,79.2
2015-12-11T01:45:48.413Z,79.5
2015-12-11T01:46:48.369Z,79.1
2015-12-11T01:47:48.325Z,79.5
2015-12-11T01:48:48.250Z,79
2015-12-11T01:49:48.189Z,78.8
2015-12-11T01:50:48.130Z,78.4
2015-12-11T01:51:48.070Z,78.4
2015-12-11T01:52:48.026Z,78.5
2015-12-11T01:53:47.966Z,78.1
2015-12-11T01:54:47.907Z,77.6
2015-12-11T01:55:47.846Z,76.7
2015-12-11T01:56:47.788Z,77.4
2015-12-11T01:57:47.727Z,77.5
2015-12-11T01:58:47.683Z,76.9
2015-12-11T01:59:47.842Z,77
2015-12-11T02:00:47.783Z,76.9
2015-12-11T02:01:47.504Z,76.4
2015-12-11T02:02:47.445Z,76.7
2015-12-11T02:03:47.401Z,77.1
2015-12-11T02:04:47.342Z,77
2015-12-11T02:05:47.282Z,77.4
2015-12-11T02:06:47.191Z,77.3
2015-12-11T02:07:47.131Z,77.2
2015-12-11T02:08:47.103Z,76.8
2015-12-11T02:09:47.043Z,77.2
2015-12-11T02:10:46.967Z,77.5
2015-12-11T02:11:46.908Z,78.4
2015-12-11T02:12:46.848Z,78.5
2015-12-11T02:13:46.803Z,78.2
2015-12-11T02:14:46.756Z,78.1
2015-12-11T02:15:46.666Z,78.1
2015-12-11T02:16:46.622Z,78.2
2015-12-11T02:17:46.547Z,78
2015-12-11T02:18:46.517Z,77.6
2015-12-11T02:19:46.458Z,77.7
2015-12-11T02:20:46.382Z,77.4
2015-12-11T02:21:46.338Z,77.8
2015-12-11T02:22:46.482Z,78.1
2015-12-11T02:23:46.218Z,78.2
2015-12-11T02:24:46.159Z,78.2
2015-12-11T02:25:46.100Z,78.5
2015-12-11T02:26:46.039Z,78.2
2015-12-11T02:27:46.214Z,78.1
2015-12-11T02:28:45.920Z,77.8
2015-12-11T02:29:45.877Z,78.4
2015-12-11T02:30:45.800Z,78.5
2015-12-11T02:31:45.757Z,78.4
2015-12-11T02:32:45.696Z,78.4
2015-12-11T02:33:45.637Z,78.2
2015-12-11T02:34:45.577Z,78.6
2015-12-11T02:35:45.533Z,78.6
2015-12-11T02:36:45.458Z,78.2
2015-12-11T02:37:45.399Z,78.3
2015-12-11T02:38:45.354Z,78.3
2015-12-11T02:39:45.294Z,78.2
2015-12-11T02:40:45.235Z,77.4
2015-12-11T02:41:45.174Z,77.2
2015-12-11T02:42:45.131Z,76.6
2015-12-11T02:43:45.055Z,76.7
2015-12-11T02:44:44.996Z,76.8
2015-12-11T02:45:44.952Z,76.9
2015-12-11T02:46:44.908Z,76.6
2015-12-11T02:47:44.832Z,76.5
2015-12-11T02:48:44.772Z,77
2015-12-11T02:49:44.713Z,76.6
2015-12-11T02:50:44.669Z,77
2015-12-11T02:51:44.625Z,76.3
2015-12-11T02:52:44.531Z,76.4
2015-12-11T02:53:44.486Z,76.3
2015-12-11T02:54:44.427Z,76.6
2015-12-11T02:55:44.367Z,75.8
2015-12-11T02:56:44.323Z,75.9
2015-12-11T02:57:44.263Z,76.1
2015-12-11T02:58:44.203Z,75.8
2015-12-11T02:59:44.143Z,76
2015-12-11T03:00:43.350Z,76
2015-12-11T03:01:44.025Z,76.3
2015-12-11T03:02:43.965Z,76.2
2015-12-11T03:03:43.749Z,76.2
2015-12-11T03:04:43.846Z,76.7
2015-12-11T03:05:43.802Z,76.5
2015-12-11T03:06:43.742Z,76.6
2015-12-11T03:07:43.682Z,76.5
2015-12-11T03:08:43.622Z,76.5
2015-12-11T03:09:43.578Z,76.6
2015-12-11T03:10:43.502Z,76.3
2015-12-11T03:11:43.459Z,76.2
2015-12-11T03:12:43.383Z,76.4
2015-12-11T03:13:43.339Z,76.3
2015-12-11T03:14:43.280Z,76.5
2015-12-11T03:15:43.220Z,76.3
2015-12-11T03:16:43.160Z,76.6
2015-12-11T03:17:43.132Z,76.9
2015-12-11T03:18:43.056Z,77
2015-12-11T03:19:42.981Z,76.9
2015-12-11T03:20:42.937Z,76.1
2015-12-11T03:21:42.877Z,76.5
2015-12-11T03:22:42.817Z,76.9
2015-12-11T03:23:42.758Z,76.5
2015-12-11T03:24:42.697Z,76.4
2015-12-11T03:25:42.638Z,76.5
2015-12-11T03:26:42.594Z,77
2015-12-11T03:27:42.535Z,76.7
2015-12-11T03:28:42.458Z,77
2015-12-11T03:29:42.415Z,76.4
2015-12-11T03:30:42.355Z,76.1
2015-12-11T03:31:42.295Z,76.6
2015-12-11T03:32:42.251Z,76.5
2015-12-11T03:33:42.173Z,76.6
2015-12-11T03:34:42.113Z,76.5
2015-12-11T03:35:42.069Z,76.5
2015-12-11T03:36:42.024Z,76.3
2015-12-11T03:37:41.949Z,76.6
2015-12-11T03:38:41.905Z,76.2
2015-12-11T03:39:41.846Z,76.5
2015-12-11T03:40:41.771Z,76.4
2015-12-11T03:41:41.710Z,76.6
2015-12-11T03:42:41.666Z,76.4
2015-12-11T03:43:41.606Z,76.7
2015-12-11T03:44:41.547Z,76.4
2015-12-11T03:45:41.487Z,76.3
2015-12-11T03:46:41.443Z,76.5
2015-12-11T03:47:41.383Z,76.7
2015-12-11T03:48:41.324Z,76.6
2015-12-11T03:49:41.498Z,76.4
2015-12-11T03:50:41.205Z,76.6
2015-12-11T03:51:41.144Z,76.5
2015-12-11T03:52:41.084Z,77
2015-12-11T03:53:41.040Z,76.6
2015-12-11T03:54:40.966Z,77.1
2015-12-11T03:55:40.938Z,76.6
2015-12-11T03:56:40.846Z,76.6
2015-12-11T03:57:40.801Z,76.3
2015-12-11T03:58:40.742Z,76.3
2015-12-11T03:59:40.682Z,76.3
2015-12-11T04:00:40.623Z,76.4
2015-12-11T04:01:40.562Z,76.6
2015-12-11T04:02:40.706Z,77
2015-12-11T04:03:40.459Z,77.3
2015-12-11T04:04:40.415Z,77.1
2015-12-11T04:05:40.339Z,77.5
2015-12-11T04:06:40.280Z,77.2
2015-12-11T04:07:40.220Z,77.1
2015-12-11T04:08:40.176Z,77.4
2015-12-11T04:09:40.101Z,77.4
2015-12-11T04:10:40.040Z,77.1
2015-12-11T04:11:39.981Z,77.6
2015-12-11T04:12:39.918Z,77.5
2015-12-11T04:13:39.859Z,77.8
2015-12-11T04:14:39.814Z,77.8
2015-12-11T04:15:39.739Z,78.3
2015-12-11T04:16:39.679Z,78.3
2015-12-11T04:17:39.619Z,77.9
2015-12-11T04:18:39.576Z,78
2015-12-11T04:19:39.531Z,77.7
2015-12-11T04:20:39.456Z,77.5
2015-12-11T04:21:39.395Z,77.1
2015-12-11T04:22:39.336Z,77.1
2015-12-11T04:23:39.277Z,77.4
2015-12-11T04:24:39.217Z,77.3
2015-12-11T04:25:39.173Z,77.4
2015-12-11T04:26:39.097Z,77.5
2015-12-11T04:27:39.053Z,78.1
2015-12-11T04:28:39.228Z,78
2015-12-11T04:29:38.934Z,77.9
2015-12-11T04:30:38.889Z,77.5
2015-12-11T04:31:38.814Z,77.9
2015-12-11T04:32:38.754Z,77.7
2015-12-11T04:33:38.695Z,77.6
2015-12-11T04:34:38.651Z,77.5
2015-12-11T04:35:38.592Z,77.3
2015-12-11T04:36:38.531Z,77.5
2015-12-11T04:37:38.456Z,77.5
2015-12-11T04:38:38.411Z,77.6
2015-12-11T04:39:38.353Z,77.5
2015-12-11T04:40:38.292Z,77.7
2015-12-11T04:41:38.233Z,77.6
2015-12-11T04:42:38.173Z,77.6
2015-12-11T04:43:38.114Z,77.5
2015-12-11T04:44:38.053Z,77.9
2015-12-11T04:45:38.009Z,78.1
2015-12-11T04:46:37.949Z,77.5
2015-12-11T04:47:37.890Z,77.1
2015-12-11T04:48:37.814Z,77.1
2015-12-11T04:49:37.770Z,77.4
2015-12-11T04:50:37.710Z,77.4
2015-12-11T04:51:37.651Z,77
2015-12-11T04:52:37.589Z,76.9
2015-12-11T04:53:37.528Z,76.9
2015-12-11T04:54:37.469Z,77
2015-12-11T04:55:36.675Z,77.2
2015-12-11T04:56:37.365Z,77.1
2015-12-11T04:57:36.555Z,77.1
2015-12-11T04:58:37.230Z,76.9
2015-12-11T04:59:37.170Z,76.7
2015-12-11T05:00:37.110Z,76.9
2015-12-11T05:01:37.066Z,76.6
2015-12-11T05:02:37.022Z,77.1
2015-12-11T05:03:36.946Z,76.8
2015-12-11T05:04:36.886Z,76.4
2015-12-11T05:05:36.842Z,76.6
2015-12-11T05:06:36.783Z,76.6
2015-12-11T05:07:36.958Z,76.5
2015-12-11T05:08:36.897Z,76.8
2015-12-11T05:09:36.838Z,77.1
2015-12-11T05:10:36.544Z,77.3
2015-12-11T05:11:36.484Z,76.6
2015-12-11T05:12:36.456Z,76.4
2015-12-11T05:13:36.380Z,76.8
2015-12-11T05:14:36.321Z,76.8
2015-12-11T05:15:36.245Z,77
2015-12-11T05:16:36.201Z,77
2015-12-11T05:17:36.142Z,77.3
2015-12-11T05:18:36.082Z,77.3
2015-12-11T05:19:36.022Z,77.2
2015-12-11T05:20:35.962Z,77.1
2015-12-11T05:21:35.902Z,77.2
2015-12-11T05:22:35.858Z,77.4
2015-12-11T05:23:35.799Z,77.3
2015-12-11T05:24:35.724Z,77.1
2015-12-11T05:25:35.664Z,77
2015-12-11T05:26:35.619Z,77.1
2015-12-11T05:27:35.560Z,77
2015-12-11T05:28:35.735Z,77.2
2015-12-11T05:29:35.690Z,77.5
2015-12-11T05:30:35.615Z,77.7
2015-12-11T05:31:34.583Z,77.2
2015-12-11T05:32:35.274Z,78.1
2015-12-11T05:33:35.214Z,77.2
2015-12-11T05:34:35.139Z,77.3
2015-12-11T05:35:35.094Z,77.1
2015-12-11T05:36:35.113Z,77.5
2015-12-11T05:37:35.116Z,77.4
2015-12-11T05:38:34.915Z,77.3
2015-12-11T05:39:34.856Z,77.5
2015-12-11T05:40:34.796Z,77.5
2015-12-11T05:41:34.736Z,77.3
2015-12-11T05:42:34.676Z,77.4
2015-12-11T05:43:34.617Z,77.5
2015-12-11T05:44:34.557Z,78.3
2015-12-11T05:45:34.497Z,78.1
2015-12-11T05:46:34.453Z,78
2015-12-11T05:47:34.393Z,78.1
2015-12-11T05:48:34.319Z,78.3
2015-12-11T05:49:34.258Z,78.3
2015-12-11T05:50:34.355Z,78.9
2015-12-11T05:51:34.217Z,79
2015-12-11T05:52:34.094Z,78.7
2015-12-11T05:53:34.035Z,79
2015-12-11T05:54:33.975Z,79
2015-12-11T05:55:33.915Z,79
2015-12-11T05:56:33.949Z,79
2015-12-11T05:57:33.796Z,79.3
2015-12-11T05:58:33.752Z,79.4
2015-12-11T05:59:33.677Z,79.2
2015-12-11T06:00:33.616Z,79.1
2015-12-11T06:01:33.573Z,79.5
2015-12-11T06:02:33.513Z,79.2
2015-12-11T06:03:33.454Z,79.8
2015-12-11T06:04:33.627Z,79.5
2015-12-11T06:05:33.334Z,79.7
2015-12-11T06:06:33.274Z,79.9
2015-12-11T06:07:33.230Z,80.1
2015-12-11T06:08:33.168Z,80.5
2015-12-11T06:09:33.107Z,80.3
2015-12-11T06:10:33.047Z,80.7
2015-12-11T06:11:32.988Z,80.7
2015-12-11T06:12:32.928Z,81
2015-12-11T06:13:32.884Z,80.7
2015-12-11T06:14:32.840Z,80.5
2015-12-11T06:15:32.749Z,80.6
2015-12-11T06:16:32.705Z,81
2015-12-11T06:17:32.645Z,80.9
2015-12-11T06:18:32.585Z,80.8
2015-12-11T06:19:32.541Z,80.9
2015-12-11T06:20:32.466Z,82.6
2015-12-11T06:21:32.407Z,81.7
2015-12-11T06:22:32.596Z,81.4
2015-12-11T06:23:32.302Z,81.5
2015-12-11T06:24:32.258Z,81.4
2015-12-11T06:25:32.198Z,81.2
2015-12-11T06:26:32.139Z,81.2
2015-12-11T06:27:32.079Z,81.3
2015-12-11T06:28:32.019Z,81.7
2015-12-11T06:29:31.960Z,81.5
2015-12-11T06:30:31.915Z,81.6
2015-12-11T06:31:31.839Z,81.8
2015-12-11T06:32:32.031Z,81.8
2015-12-11T06:33:31.736Z,82
2015-12-11T06:34:31.676Z,82.2
2015-12-11T06:35:31.617Z,82.2
2015-12-11T06:36:31.556Z,82.2
2015-12-11T06:37:31.498Z,82.3
2015-12-11T06:38:31.437Z,82.4
2015-12-11T06:39:31.393Z,82.3
2015-12-11T06:40:31.348Z,82.4
2015-12-11T06:41:31.273Z,82.8
2015-12-11T06:42:31.464Z,82.7
2015-12-11T06:43:31.170Z,82.8
2015-12-11T06:44:31.125Z,82.8
2015-12-11T06:45:31.066Z,82.8
2015-12-11T06:46:31.007Z,83
2015-12-11T06:47:30.947Z,83.2
2015-12-11T06:48:30.884Z,83.5
2015-12-11T06:49:30.840Z,83.5
2015-12-11T06:50:30.780Z,83.7
2015-12-11T06:51:30.720Z,83.7
2015-12-11T06:52:30.676Z,83.9
2015-12-11T06:53:30.617Z,84.4
2015-12-11T06:54:30.556Z,84.2
2015-12-11T06:55:30.498Z,84.2
2015-12-11T06:56:30.437Z,85.1
2015-12-11T06:57:30.378Z,85.5
2015-12-11T06:58:30.318Z,85.9
2015-12-11T06:59:30.273Z,86.3
2015-12-11T07:00:29.533Z,86.8
2015-12-11T07:01:30.161Z,87.1
2015-12-11T07:02:30.101Z,86.9
2015-12-11T07:03:30.041Z,86.7
2015-12-11T07:04:29.997Z,86.9
2015-12-11T07:05:30.027Z,87.4
2015-12-11T07:06:29.979Z,87.5
2015-12-11T07:07:29.742Z,86.9
2015-12-11T07:08:29.813Z,86.9
2015-12-11T07:09:30.410Z,87.1
2015-12-11T07:10:29.757Z,87.1
2015-12-11T07:11:28.853Z,87.1
2015-12-11T07:12:29.527Z,87.5
2015-12-11T07:13:29.608Z,87.6
2015-12-11T07:14:29.424Z,88
2015-12-11T07:15:29.364Z,88.3
2015-12-11T07:16:29.304Z,88.3
2015-12-11T07:17:29.244Z,88.1
2015-12-11T07:18:29.185Z,88.4
2015-12-11T07:19:29.374Z,88
2015-12-11T07:20:29.080Z,87.9
2015-12-11T07:21:29.022Z,87.7
2015-12-11T07:22:28.960Z,87.7
2015-12-11T07:23:28.917Z,87.8
2015-12-11T07:24:28.854Z,87.3
2015-12-11T07:25:28.795Z,86.9
2015-12-11T07:26:28.735Z,87.2
2015-12-11T07:27:28.676Z,87.1
2015-12-11T07:28:28.615Z,86.6
2015-12-11T07:29:28.571Z,86.4
2015-12-11T07:30:28.512Z,86.4
2015-12-11T07:31:28.452Z,86.1
2015-12-11T07:32:28.393Z,86.4
2015-12-11T07:33:28.333Z,86.5
2015-12-11T07:34:28.273Z,86.6
2015-12-11T07:35:28.213Z,86.7
2015-12-11T07:36:28.154Z,87
2015-12-11T07:37:28.110Z,86.9
2015-12-11T07:38:28.035Z,86.5
2015-12-11T07:39:27.990Z,86.7
2015-12-11T07:40:27.929Z,86.4
2015-12-11T07:41:27.871Z,86.7
2015-12-11T07:42:27.810Z,86.8
2015-12-11T07:43:27.751Z,86.8
2015-12-11T07:44:27.723Z,86.6
2015-12-11T07:45:27.631Z,86.8
2015-12-11T07:46:27.822Z,86.9
2015-12-11T07:47:27.512Z,86.8
2015-12-11T07:48:27.468Z,86.7
2015-12-11T07:49:27.392Z,87.1
2015-12-11T07:50:27.348Z,86.9
2015-12-11T07:51:27.288Z,87.2
2015-12-11T07:52:27.229Z,87.4
2015-12-11T07:53:27.169Z,87.4
2015-12-11T07:54:27.109Z,87.2
2015-12-11T07:55:27.049Z,87.2
2015-12-11T07:56:26.990Z,87.2
2015-12-11T07:57:26.946Z,87
2015-12-11T07:58:26.887Z,88.4
2015-12-11T07:59:26.810Z,87.7
2015-12-11T08:00:26.767Z,87.6
2015-12-11T08:01:26.704Z,87.6
2015-12-11T08:02:26.644Z,87.9
2015-12-11T08:03:26.601Z,88.1
2015-12-11T08:04:26.540Z,87.8
2015-12-11T08:05:26.480Z,87.7
2015-12-11T08:06:26.420Z,87.6
2015-12-11T08:07:26.361Z,87.6
2015-12-11T08:08:26.301Z,87.9
2015-12-11T08:09:26.273Z,88
2015-12-11T08:10:26.182Z,87.8
2015-12-11T08:11:26.137Z,87.8
2015-12-11T08:12:26.079Z,88
2015-12-11T08:13:26.018Z,88.1
2015-12-11T08:14:25.958Z,88
2015-12-11T08:15:25.899Z,88.2
2015-12-11T08:16:25.839Z,88.4
2015-12-11T08:17:25.795Z,88.5
2015-12-11T08:18:25.734Z,88.7
2015-12-11T08:19:25.676Z,88.5
2015-12-11T08:20:25.615Z,88.5
2015-12-11T08:21:25.556Z,88.8
2015-12-11T08:22:25.496Z,89
2015-12-11T08:23:25.437Z,89.6
2015-12-11T08:24:25.393Z,89.8
2015-12-11T08:25:25.333Z,90.3
2015-12-11T08:26:25.523Z,90.4
2015-12-11T08:27:25.229Z,90.2
2015-12-11T08:28:25.169Z,90.1
2015-12-11T08:29:25.109Z,90.3
2015-12-11T08:30:25.034Z,90.6
2015-12-11T08:31:24.990Z,90.7
2015-12-11T08:32:24.945Z,90.6
2015-12-11T08:33:24.871Z,90.8
2015-12-11T08:34:24.811Z,91.1
2015-12-11T08:35:24.767Z,91.1
2015-12-11T08:36:24.706Z,91.2
2015-12-11T08:37:24.648Z,91.6
2015-12-11T08:38:24.587Z,92
2015-12-11T08:39:24.528Z,91.6
2015-12-11T08:40:24.465Z,91.3
2015-12-11T08:41:24.420Z,90.9
2015-12-11T08:42:24.361Z,91.1
2015-12-11T08:43:24.301Z,91.2
2015-12-11T08:44:24.242Z,91.1
2015-12-11T08:45:24.181Z,90.9
2015-12-11T08:46:24.138Z,90.9
2015-12-11T08:47:24.311Z,90.8
2015-12-11T08:48:24.236Z,90.9
2015-12-11T08:49:23.942Z,91
2015-12-11T08:50:23.899Z,90.9
2015-12-11T08:51:23.839Z,91
2015-12-11T08:52:23.779Z,90.7
2015-12-11T08:53:23.953Z,90.8
2015-12-11T08:54:23.661Z,90.7
2015-12-11T08:55:23.599Z,90.9
2015-12-11T08:56:23.556Z,91.1
2015-12-11T08:57:23.496Z,91
2015-12-11T08:58:23.671Z,90.8
2015-12-11T08:59:23.377Z,91.1
2015-12-11T09:00:23.316Z,91.2
2015-12-11T09:01:23.258Z,91.6
2015-12-11T09:02:23.207Z,91.9
2015-12-11T09:03:23.147Z,91.7
2015-12-11T09:04:23.104Z,91.6
2015-12-11T09:05:23.044Z,91.6
2015-12-11T09:06:22.968Z,91.4
2015-12-11T09:07:22.924Z,91
2015-12-11T09:08:22.865Z,90.8
2015-12-11T09:09:22.804Z,90.7
2015-12-11T09:10:22.760Z,90.8
2015-12-11T09:11:22.685Z,90.9
2015-12-11T09:12:22.626Z,90.6
2015-12-11T09:13:22.582Z,90.6
2015-12-11T09:14:22.521Z,91.1
2015-12-11T09:15:22.477Z,91.2
2015-12-11T09:16:22.418Z,91.1
2015-12-11T09:17:22.358Z,91.1
2015-12-11T09:18:22.298Z,91.5
2015-12-11T09:19:22.473Z,91.8
2015-12-11T09:20:22.191Z,91.4
2015-12-11T09:21:22.132Z,91
2015-12-11T09:22:22.057Z,91.1
2015-12-11T09:23:22.012Z,91.2
2015-12-11T09:24:21.952Z,91.3
2015-12-11T09:25:21.892Z,91.4
2015-12-11T09:26:21.833Z,91.4
2015-12-11T09:27:21.789Z,91.7
2015-12-11T09:28:21.713Z,91.2
2015-12-11T09:29:21.670Z,91.1
2015-12-11T09:30:21.610Z,91.3
2015-12-11T09:31:21.550Z,91.2
2015-12-11T09:32:21.490Z,91.1
2015-12-11T09:33:21.431Z,91.1
2015-12-11T09:34:21.371Z,91.1
2015-12-11T09:35:21.327Z,91.1
2015-12-11T09:36:21.267Z,91.1
2015-12-11T09:37:21.207Z,91.2
2015-12-11T09:38:21.147Z,91.1
2015-12-11T09:39:21.088Z,91.1
2015-12-11T09:40:21.043Z,91
2015-12-11T09:41:20.968Z,91.4
2015-12-11T09:42:20.924Z,91.2
2015-12-11T09:43:20.865Z,91.5
2015-12-11T09:44:20.804Z,91.6
2015-12-11T09:45:20.745Z,91.1
2015-12-11T09:46:20.685Z,91.4
2015-12-11T09:47:20.625Z,91.4
2015-12-11T09:48:20.582Z,91.3
2015-12-11T09:49:20.521Z,90.9
2015-12-11T09:50:20.462Z,91.1
2015-12-11T09:51:20.418Z,90.9
2015-12-11T09:52:20.358Z,90.7
2015-12-11T09:53:19.564Z,90.1
2015-12-11T09:54:20.254Z,90.3
2015-12-11T09:55:20.179Z,90.3
2015-12-11T09:56:20.119Z,90.6
2015-12-11T09:57:20.056Z,91.1
2015-12-11T09:58:20.012Z,91.1
2015-12-11T09:59:19.953Z,91
2015-12-11T10:00:19.908Z,91
2015-12-11T10:01:19.833Z,91.3
2015-12-11T10:02:19.773Z,91.3
2015-12-11T10:03:19.589Z,91.3
2015-12-11T10:04:19.669Z,91.4
2015-12-11T10:05:19.610Z,91
2015-12-11T10:06:19.565Z,91.3
2015-12-11T10:07:19.489Z,91.6
2015-12-11T10:08:19.445Z,91.3
2015-12-11T10:09:19.387Z,91.2
2015-12-11T10:10:19.342Z,91.1
2015-12-11T10:11:19.282Z,90.9
2015-12-11T10:12:19.223Z,91
2015-12-11T10:13:19.163Z,91.5
2015-12-11T10:14:19.087Z,91.1
2015-12-11T10:15:19.044Z,91.4
2015-12-11T10:16:18.984Z,91
2015-12-11T10:17:18.956Z,90.7
2015-12-11T10:18:18.864Z,91.2
2015-12-11T10:19:18.836Z,91.4
2015-12-11T10:20:18.792Z,91.2
2015-12-11T10:21:18.717Z,91.2
2015-12-11T10:22:18.672Z,90.9
2015-12-11T10:23:18.581Z,90.6
2015-12-11T10:24:18.537Z,91.1
2015-12-11T10:25:18.478Z,90.9
2015-12-11T10:26:18.417Z,91.2
2015-12-11T10:27:18.371Z,91.2
2015-12-11T10:28:18.284Z,90.1
2015-12-11T10:29:18.227Z,89.9
2015-12-11T10:30:18.155Z,90.2
2015-12-11T10:31:18.083Z,90.8
2015-12-11T10:32:18.030Z,90.3
2015-12-11T10:33:17.949Z,90.4
2015-12-11T10:34:17.885Z,89.9
2015-12-11T10:35:17.820Z,90.3
2015-12-11T10:36:17.774Z,90.7
2015-12-11T10:37:17.725Z,90.4
2015-12-11T10:38:17.677Z,90.7
2015-12-11T10:39:17.584Z,90.7
2015-12-11T10:40:17.523Z,91.2
2015-12-11T10:41:17.478Z,91.2
2015-12-11T10:42:17.416Z,90.9
2015-12-11T10:43:17.356Z,90.7
2015-12-11T10:44:17.295Z,90.6
2015-12-11T10:45:17.250Z,90.7
2015-12-11T10:46:17.175Z,90.3
2015-12-11T10:47:17.130Z,90.4
2015-12-11T10:48:17.071Z,90.7
2015-12-11T10:49:17.010Z,90.7
2015-12-11T10:50:16.950Z,90.9
2015-12-11T10:51:16.906Z,90.7
2015-12-11T10:52:17.175Z,91.3
2015-12-11T10:53:17.114Z,91.3
2015-12-11T10:54:17.148Z,91.4
2015-12-11T10:55:16.667Z,91.7
2015-12-11T10:56:16.606Z,91.6
2015-12-11T10:57:16.563Z,91.7
2015-12-11T10:58:16.519Z,92.4
2015-12-11T10:59:16.444Z,92.2
2015-12-11T11:00:16.383Z,92.1
2015-12-11T11:01:16.339Z,92.4
2015-12-11T11:02:16.280Z,92.2
2015-12-11T11:03:16.235Z,92.3
2015-12-11T11:04:16.270Z,92
2015-12-11T11:05:16.100Z,92
2015-12-11T11:06:16.041Z,91.6
2015-12-11T11:07:15.981Z,91.8
2015-12-11T11:08:15.936Z,91.8
2015-12-11T11:09:15.877Z,91.6
2015-12-11T11:10:15.817Z,91.9
2015-12-11T11:11:15.773Z,91.8
2015-12-11T11:12:15.714Z,91.6
2015-12-11T11:13:15.653Z,91.8
2015-12-11T11:14:15.625Z,91.3
2015-12-11T11:15:15.549Z,91.4
2015-12-11T11:16:15.471Z,91.9
2015-12-11T11:17:15.427Z,92.2
2015-12-11T11:18:15.382Z,92
2015-12-11T11:19:15.323Z,92
2015-12-11T11:20:15.249Z,91.9
2015-12-11T11:21:15.205Z,92.1
2015-12-11T11:22:15.144Z,92.7
2015-12-11T11:23:15.085Z,92.2
2015-12-11T11:24:15.041Z,92.2
2015-12-11T11:25:14.965Z,92.4
2015-12-11T11:26:14.921Z,92.4
2015-12-11T11:27:14.846Z,92.4
2015-12-11T11:28:14.802Z,92.4
2015-12-11T11:29:14.742Z,93.2
2015-12-11T11:30:14.713Z,93.3
2015-12-11T11:31:14.622Z,93.5
2015-12-11T11:32:14.577Z,93.7
2015-12-11T11:33:14.518Z,93.5
2015-12-11T11:34:13.724Z,93.4
2015-12-11T11:35:14.398Z,93.7
2015-12-11T11:36:14.338Z,93.7
2015-12-11T11:37:14.529Z,93.8
2015-12-11T11:38:14.235Z,94.1
2015-12-11T11:39:14.191Z,94.1
2015-12-11T11:40:14.131Z,94.1
2015-12-11T11:41:14.071Z,94.2
2015-12-11T11:42:13.996Z,94.4
2015-12-11T11:43:14.187Z,94.6
2015-12-11T11:44:13.908Z,94.6
2015-12-11T11:45:13.833Z,94.5
2015-12-11T11:46:13.773Z,94.5
2015-12-11T11:47:13.729Z,94.6
2015-12-11T11:48:13.904Z,94.9
2015-12-11T11:49:13.610Z,95.3
2015-12-11T11:50:13.549Z,95.4
2015-12-11T11:51:13.506Z,94.9
2015-12-11T11:52:13.445Z,95.2
2015-12-11T11:53:13.385Z,94.9
2015-12-11T11:54:13.342Z,95.3
2015-12-11T11:55:13.282Z,95.3
2015-12-11T11:56:13.204Z,95.4
2015-12-11T11:57:13.159Z,95.4
2015-12-11T11:58:13.100Z,95.6
2015-12-11T11:59:13.103Z,95.5
2015-12-11T12:00:12.989Z,95.4
2015-12-11T12:01:12.929Z,95.4
2015-12-11T12:02:12.902Z,95.6
2015-12-11T12:03:12.810Z,95.6
2015-12-11T12:04:12.766Z,95.4
2015-12-11T12:05:12.706Z,96.1
2015-12-11T12:06:12.646Z,96.2
2015-12-11T12:07:12.602Z,96.6
2015-12-11T12:08:12.543Z,96.6
2015-12-11T12:09:12.468Z,96.2
2015-12-11T12:10:12.423Z,96.1
2015-12-11T12:11:12.363Z,96.4
2015-12-11T12:12:12.304Z,96.7
2015-12-11T12:13:12.244Z,96.9
2015-12-11T12:14:12.199Z,98.1
2015-12-11T12:15:12.140Z,97.1
2015-12-11T12:16:12.065Z,96.8
2015-12-11T12:17:12.021Z,96.6
2015-12-11T12:18:11.976Z,96.2
2015-12-11T12:19:11.901Z,96.4
2015-12-11T12:20:11.856Z,96.7
2015-12-11T12:21:11.797Z,96.4
2015-12-11T12:22:11.737Z,96.4
2015-12-11T12:23:11.677Z,96.4
2015-12-11T12:24:11.696Z,95.8
2015-12-11T12:25:11.574Z,95.9
2015-12-11T12:26:11.514Z,96
2015-12-11T12:27:11.454Z,95.7
2015-12-11T12:28:11.426Z,95.4
2015-12-11T12:29:11.365Z,95.4
2015-12-11T12:30:11.290Z,95.2
2015-12-11T12:31:11.231Z,95.3
2015-12-11T12:32:11.172Z,95.4
2015-12-11T12:33:11.127Z,95.1
2015-12-11T12:34:11.082Z,94.9
2015-12-11T12:35:11.007Z,95.2
2015-12-11T12:36:10.948Z,94.9
2015-12-11T12:37:10.904Z,95.1
2015-12-11T12:38:10.841Z,94.8
2015-12-11T12:39:10.782Z,95
2015-12-11T12:40:10.721Z,95.2
2015-12-11T12:41:10.662Z,95
2015-12-11T12:42:10.618Z,95.1
2015-12-11T12:43:10.559Z,94.4
2015-12-11T12:44:10.498Z,94.3
2015-12-11T12:45:10.439Z,94.9
2015-12-11T12:46:10.379Z,94.6
2015-12-11T12:47:10.320Z,94.8
2015-12-11T12:48:10.275Z,95
2015-12-11T12:49:10.215Z,94.5
2015-12-11T12:50:10.171Z,94.7
2015-12-11T12:51:10.095Z,94.3
2015-12-11T12:52:10.036Z,94.2
2015-12-11T12:53:09.992Z,94.2
2015-12-11T12:54:09.931Z,94.3
2015-12-11T12:55:09.873Z,94.3
2015-12-11T12:56:09.812Z,95.1
2015-12-11T12:57:09.753Z,95.1
2015-12-11T12:58:09.708Z,94.9
2015-12-11T12:59:09.665Z,95.1
2015-12-11T13:00:09.590Z,95.1
2015-12-11T13:01:09.529Z,94.9
2015-12-11T13:02:09.501Z,94.8
2015-12-11T13:03:09.659Z,94.9
2015-12-11T13:04:09.382Z,95
2015-12-11T13:05:09.306Z,95.1
2015-12-11T13:06:09.262Z,95.1
2015-12-11T13:07:09.203Z,95.3
2015-12-11T13:08:09.142Z,94.9
2015-12-11T13:09:09.083Z,95.2
2015-12-11T13:10:09.117Z,95.1
2015-12-11T13:11:08.979Z,95.1
2015-12-11T13:12:08.919Z,95.3
2015-12-11T13:13:08.875Z,95.2
2015-12-11T13:14:08.800Z,95
2015-12-11T13:15:08.740Z,95.1
2015-12-11T13:16:08.695Z,94.9
2015-12-11T13:17:08.633Z,94.8
2015-12-11T13:18:08.589Z,95
2015-12-11T13:19:08.514Z,94.9
2015-12-11T13:20:08.470Z,94.9
2015-12-11T13:21:08.411Z,95
2015-12-11T13:22:08.350Z,94.9
2015-12-11T13:23:08.306Z,94.9